createdAt,value
2017-09-25T00:01:03.235Z,14.90
2017-09-25T00:03:31.542Z,14.90
2017-09-25T00:06:00.637Z,15.00
2017-09-25T00:08:28.951Z,14.90
2017-09-25T00:10:57.497Z,15.00
2017-09-25T00:13:25.821Z,15.00
2017-09-25T00:15:54.098Z,15.10
2017-09-25T00:18:22.439Z,15.10
2017-09-25T00:20:50.755Z,15.00
2017-09-25T00:23:19.092Z,15.00
2017-09-25T00:25:47.392Z,15.00
2017-09-25T00:28:15.729Z,15.00
2017-09-25T00:30:44.064Z,15.10
2017-09-25T00:33:12.388Z,15.00
2017-09-25T00:35:40.713Z,15.10
2017-09-25T00:38:09.045Z,15.10
2017-09-25T00:40:37.342Z,15.10
2017-09-25T00:43:05.689Z,15.10
2017-09-25T00:45:34.744Z,15.10
2017-09-25T00:48:03.253Z,15.10
2017-09-25T00:50:32.327Z,15.10
2017-09-25T00:53:12.646Z,15.10
2017-09-25T00:55:50.763Z,15.20
2017-09-25T00:58:19.201Z,15.20
2017-09-25T01:00:59.267Z,15.20
2017-09-25T01:03:39.606Z,15.20
2017-09-25T01:06:21.046Z,15.10
2017-09-25T01:08:49.369Z,15.10
2017-09-25T01:11:18.448Z,14.90
2017-09-25T01:13:46.746Z,14.90
2017-09-25T01:16:15.085Z,14.90
2017-09-25T01:18:43.401Z,14.90
2017-09-25T01:21:12.491Z,15.00
2017-09-25T01:23:41.575Z,15.10
2017-09-25T01:26:10.672Z,15.10
2017-09-25T01:28:38.976Z,15.10
2017-09-25T01:31:07.314Z,15.10
2017-09-25T01:33:35.622Z,15.10
2017-09-25T01:36:04.235Z,15.20
2017-09-25T01:38:32.560Z,15.20
2017-09-25T01:41:00.868Z,15.20
2017-09-25T01:43:29.207Z,15.20
2017-09-25T01:45:59.014Z,15.20
2017-09-25T01:48:27.357Z,15.20
2017-09-25T01:50:55.661Z,15.20
2017-09-25T01:53:23.991Z,15.20
2017-09-25T01:55:52.303Z,15.10
2017-09-25T01:58:20.635Z,15.00
2017-09-25T02:00:48.951Z,15.00
2017-09-25T02:03:17.389Z,15.10
2017-09-25T02:05:45.701Z,15.10
2017-09-25T02:08:14.016Z,15.20
2017-09-25T02:10:43.128Z,15.20
2017-09-25T02:13:11.563Z,15.20
2017-09-25T02:15:39.898Z,15.30
2017-09-25T02:18:08.216Z,15.30
2017-09-25T02:20:36.553Z,15.40
2017-09-25T02:23:04.852Z,15.40
2017-09-25T02:25:33.196Z,15.30
2017-09-25T02:28:01.526Z,15.20
2017-09-25T02:30:30.252Z,15.10
2017-09-25T02:32:58.583Z,15.00
2017-09-25T02:35:26.907Z,14.90
2017-09-25T02:37:56.008Z,14.80
2017-09-25T02:40:25.063Z,14.70
2017-09-25T02:42:53.404Z,14.70
2017-09-25T02:45:21.722Z,14.70
2017-09-25T02:47:50.060Z,14.70
2017-09-25T02:50:18.381Z,14.70
2017-09-25T02:52:47.224Z,14.80
2017-09-25T02:55:15.514Z,14.80
2017-09-25T02:57:43.830Z,14.80
2017-09-25T03:00:12.139Z,14.80
2017-09-25T03:02:40.475Z,14.80
2017-09-25T03:05:09.594Z,14.70
2017-09-25T03:07:37.911Z,14.70
2017-09-25T03:10:06.234Z,14.70
2017-09-25T03:12:35.451Z,14.80
2017-09-25T03:15:04.542Z,14.80
2017-09-25T03:17:33.611Z,14.80
2017-09-25T03:20:02.727Z,14.80
2017-09-25T03:22:31.800Z,14.80
2017-09-25T03:25:00.119Z,14.80
2017-09-25T03:27:28.429Z,14.90
2017-09-25T03:29:56.734Z,14.90
2017-09-25T03:32:25.068Z,14.90
2017-09-25T03:34:53.372Z,14.90
2017-09-25T03:37:21.703Z,15.00
2017-09-25T03:39:50.001Z,15.00
2017-09-25T03:42:18.329Z,15.10
2017-09-25T03:44:46.655Z,15.00
2017-09-25T03:47:15.084Z,15.10
2017-09-25T03:49:43.415Z,15.00
2017-09-25T03:52:11.722Z,15.00
2017-09-25T03:54:40.051Z,15.00
2017-09-25T03:57:08.366Z,15.00
2017-09-25T03:59:36.795Z,15.00
2017-09-25T04:02:05.107Z,15.10
2017-09-25T04:04:33.420Z,15.10
2017-09-25T04:07:02.511Z,15.20
2017-09-25T04:09:31.611Z,15.20
2017-09-25T04:12:00.707Z,15.20
2017-09-25T04:14:29.785Z,15.30
2017-09-25T04:16:58.898Z,15.20
2017-09-25T04:19:27.962Z,15.20
2017-09-25T04:21:56.302Z,15.10
2017-09-25T04:24:24.607Z,15.10
2017-09-25T04:26:52.929Z,15.10
2017-09-25T04:29:22.021Z,15.10
2017-09-25T04:31:51.224Z,15.10
2017-09-25T04:34:19.538Z,15.00
2017-09-25T04:36:47.836Z,15.00
2017-09-25T04:39:16.183Z,15.10
2017-09-25T04:41:44.515Z,15.00
2017-09-25T04:44:12.859Z,15.10
2017-09-25T04:46:41.180Z,15.10
2017-09-25T04:49:10.282Z,15.00
2017-09-25T04:51:38.591Z,15.00
2017-09-25T04:54:06.935Z,15.00
2017-09-25T04:56:35.280Z,15.00
2017-09-25T04:59:03.635Z,15.00
2017-09-25T05:01:31.954Z,15.00
2017-09-25T05:04:01.459Z,15.00
2017-09-25T05:06:30.550Z,15.00
2017-09-25T05:08:59.627Z,15.00
2017-09-25T05:11:27.949Z,15.00
2017-09-25T05:13:56.259Z,15.00
2017-09-25T05:16:24.600Z,15.00
2017-09-25T05:18:52.915Z,15.00
2017-09-25T05:21:21.241Z,15.10
2017-09-25T05:23:49.562Z,15.10
2017-09-25T05:26:17.906Z,15.10
2017-09-25T05:28:46.248Z,15.10
2017-09-25T05:31:14.738Z,15.10
2017-09-25T05:33:43.810Z,15.20
2017-09-25T05:36:12.327Z,15.10
2017-09-25T05:38:41.422Z,15.30
2017-09-25T05:41:09.730Z,15.20
2017-09-25T05:43:38.076Z,15.30
2017-09-25T05:46:06.386Z,15.30
2017-09-25T05:48:34.727Z,15.30
2017-09-25T05:51:03.037Z,15.40
2017-09-25T05:53:31.380Z,15.40
2017-09-25T05:55:59.695Z,15.40
2017-09-25T05:58:28.231Z,15.40
2017-09-25T06:00:57.328Z,15.40
2017-09-25T06:03:26.424Z,15.40
2017-09-25T06:05:54.772Z,15.40
2017-09-25T06:08:23.153Z,15.40
2017-09-25T06:10:51.471Z,15.50
2017-09-25T06:13:19.779Z,15.40
2017-09-25T06:15:48.298Z,15.40
2017-09-25T06:18:17.379Z,15.50
2017-09-25T06:20:46.488Z,15.60
2017-09-25T06:23:15.579Z,15.60
2017-09-25T06:25:43.918Z,15.60
2017-09-25T06:28:12.227Z,15.60
2017-09-25T06:30:41.961Z,15.80
2017-09-25T06:33:11.033Z,15.90
2017-09-25T06:35:39.338Z,15.90
2017-09-25T06:38:07.686Z,15.90
2017-09-25T06:40:36.007Z,16.10
2017-09-25T06:43:04.335Z,16.20
2017-09-25T06:45:32.658Z,16.30
2017-09-25T06:48:02.127Z,16.50
2017-09-25T06:50:30.538Z,16.40
2017-09-25T06:52:59.103Z,16.40
2017-09-25T06:55:27.444Z,16.50
2017-09-25T06:57:56.530Z,16.50
2017-09-25T07:00:24.847Z,16.50
2017-09-25T07:02:53.923Z,16.60
2017-09-25T07:05:23.055Z,16.60
2017-09-25T07:07:51.370Z,16.50
2017-09-25T07:10:19.713Z,16.60
2017-09-25T07:12:48.031Z,16.60
2017-09-25T07:15:16.366Z,16.70
2017-09-25T07:17:44.674Z,16.70
2017-09-25T07:20:13.311Z,16.80
2017-09-25T07:22:42.402Z,16.80
2017-09-25T07:25:11.479Z,16.90
2017-09-25T07:27:40.704Z,17.00
2017-09-25T07:30:09.003Z,16.90
2017-09-25T07:32:37.352Z,17.00
2017-09-25T07:35:06.419Z,17.10
2017-09-25T07:37:34.754Z,17.00
2017-09-25T07:40:03.062Z,17.10
2017-09-25T07:42:31.419Z,17.10
2017-09-25T07:44:59.808Z,17.10
2017-09-25T07:47:28.402Z,17.10
2017-09-25T07:49:56.718Z,17.10
2017-09-25T07:52:25.049Z,17.00
2017-09-25T07:54:53.379Z,17.10
2017-09-25T07:57:21.673Z,17.10
2017-09-25T07:59:50.074Z,17.10
2017-09-25T08:02:18.394Z,17.00
2017-09-25T08:04:47.500Z,16.90
2017-09-25T08:07:16.575Z,16.80
2017-09-25T08:09:45.998Z,16.80
2017-09-25T08:12:14.316Z,16.70
2017-09-25T08:14:42.622Z,16.70
2017-09-25T08:17:11.739Z,16.60
2017-09-25T08:19:40.026Z,16.60
2017-09-25T08:22:09.102Z,16.60
2017-09-25T08:24:37.406Z,16.60
2017-09-25T08:27:05.748Z,16.60
2017-09-25T08:29:34.886Z,16.50
2017-09-25T08:32:03.211Z,16.50
2017-09-25T08:34:31.520Z,16.50
2017-09-25T08:37:00.138Z,16.50
2017-09-25T08:39:28.448Z,16.60
2017-09-25T08:41:56.762Z,16.70
2017-09-25T08:44:25.092Z,16.80
2017-09-25T08:46:53.390Z,16.90
2017-09-25T08:49:22.506Z,17.10
2017-09-25T08:51:50.787Z,17.00
2017-09-25T08:54:19.141Z,17.20
2017-09-25T08:56:47.468Z,17.20
2017-09-25T08:59:15.824Z,17.30
2017-09-25T09:01:44.123Z,17.30
2017-09-25T09:04:12.668Z,17.40
2017-09-25T09:06:40.990Z,17.40
2017-09-25T09:09:09.424Z,17.60
2017-09-25T09:11:37.726Z,17.60
2017-09-25T09:14:06.029Z,17.60
2017-09-25T09:16:34.386Z,17.50
2017-09-25T09:19:02.730Z,17.60
2017-09-25T09:21:31.815Z,18.00
2017-09-25T09:24:00.138Z,17.90
2017-09-25T09:26:28.507Z,18.00
2017-09-25T09:28:56.823Z,17.90
2017-09-25T09:31:25.139Z,18.10
2017-09-25T09:33:54.211Z,18.30
2017-09-25T09:36:22.531Z,18.20
2017-09-25T09:38:50.842Z,18.50
2017-09-25T09:41:20.304Z,18.70
2017-09-25T09:43:48.919Z,18.70
2017-09-25T09:46:17.248Z,19.00
2017-09-25T09:48:46.340Z,19.30
2017-09-25T09:51:15.407Z,19.30
2017-09-25T09:53:44.535Z,19.20
2017-09-25T09:56:12.907Z,19.20
2017-09-25T09:58:41.287Z,19.00
2017-09-25T10:01:10.355Z,18.90
2017-09-25T10:03:38.666Z,18.80
2017-09-25T10:06:06.978Z,18.60
2017-09-25T10:08:35.503Z,18.50
2017-09-25T10:11:03.805Z,18.50
2017-09-25T10:13:32.111Z,18.60
2017-09-25T10:16:00.435Z,18.50
2017-09-25T10:18:29.512Z,18.40
2017-09-25T10:20:57.824Z,18.40
2017-09-25T10:23:27.435Z,18.40
2017-09-25T10:25:55.789Z,18.40
2017-09-25T10:28:24.158Z,18.50
2017-09-25T10:30:52.543Z,18.60
2017-09-25T10:33:20.879Z,18.60
2017-09-25T10:35:49.617Z,18.90
2017-09-25T10:38:17.934Z,19.10
2017-09-25T10:40:46.226Z,19.30
2017-09-25T10:43:15.344Z,19.60
2017-09-25T10:45:44.442Z,19.80
2017-09-25T10:48:13.543Z,19.90
2017-09-25T10:50:41.874Z,19.80
2017-09-25T10:53:10.500Z,19.90
2017-09-25T10:55:38.787Z,19.70
2017-09-25T10:58:07.115Z,19.60
2017-09-25T11:00:35.448Z,19.60
2017-09-25T11:03:04.508Z,19.50
2017-09-25T11:05:32.844Z,19.50
2017-09-25T11:08:01.181Z,19.50
2017-09-25T11:10:30.379Z,19.30
2017-09-25T11:12:58.763Z,19.30
2017-09-25T11:15:27.151Z,19.30
2017-09-25T11:17:55.483Z,19.30
2017-09-25T11:20:23.813Z,19.40
2017-09-25T11:22:52.888Z,19.40
2017-09-25T11:25:21.220Z,19.30
2017-09-25T11:27:49.562Z,19.60
2017-09-25T11:30:17.900Z,19.60
2017-09-25T11:32:46.239Z,19.60
2017-09-25T11:35:14.530Z,19.60
2017-09-25T11:37:43.051Z,19.50
2017-09-25T11:40:12.840Z,19.10
2017-09-25T11:42:42.139Z,19.10
2017-09-25T11:45:10.494Z,19.10
2017-09-25T11:47:38.810Z,19.20
2017-09-25T11:50:07.922Z,19.30
2017-09-25T11:52:36.239Z,19.30
2017-09-25T11:55:05.028Z,19.40
2017-09-25T11:57:33.330Z,19.40
2017-09-25T12:00:01.647Z,19.40
2017-09-25T12:02:30.003Z,19.40
2017-09-25T12:04:58.495Z,19.20
2017-09-25T12:07:27.568Z,19.20
2017-09-25T12:09:55.962Z,19.20
2017-09-25T12:12:24.304Z,19.10
2017-09-25T12:14:52.725Z,19.00
2017-09-25T12:17:21.833Z,18.50
2017-09-25T12:19:50.190Z,18.40
2017-09-25T12:22:18.642Z,18.50
2017-09-25T12:24:46.933Z,18.50
2017-09-25T12:27:15.287Z,18.60
2017-09-25T12:29:43.622Z,18.70
2017-09-25T12:32:11.976Z,18.80
2017-09-25T12:34:40.399Z,18.90
2017-09-25T12:37:08.738Z,19.00
2017-09-25T12:39:37.802Z,19.20
2017-09-25T12:42:07.119Z,19.20
2017-09-25T12:44:36.195Z,19.10
2017-09-25T12:47:04.508Z,19.10
2017-09-25T12:49:33.590Z,19.20
2017-09-25T12:52:01.915Z,19.20
2017-09-25T12:54:30.454Z,19.30
2017-09-25T12:56:58.799Z,19.40
2017-09-25T12:59:27.102Z,19.50
2017-09-25T13:01:56.243Z,19.40
2017-09-25T13:04:24.550Z,19.40
2017-09-25T13:06:52.962Z,19.50
2017-09-25T13:09:21.344Z,19.50
2017-09-25T13:11:49.968Z,19.60
2017-09-25T13:14:18.404Z,19.60
2017-09-25T13:16:46.731Z,19.60
2017-09-25T13:19:15.091Z,19.60
2017-09-25T13:21:43.406Z,19.60
2017-09-25T13:24:11.720Z,19.60
2017-09-25T13:26:40.783Z,20.00
2017-09-25T13:29:09.887Z,20.10
2017-09-25T13:31:38.188Z,20.10
2017-09-25T13:34:08.272Z,20.50
2017-09-25T13:36:36.558Z,20.50
2017-09-25T13:39:06.013Z,21.20
2017-09-25T13:41:34.302Z,21.10
2017-09-25T13:44:03.315Z,21.20
2017-09-25T13:46:34.314Z,21.00
2017-09-25T13:49:02.625Z,20.60
2017-09-25T13:51:30.942Z,20.20
2017-09-25T13:53:59.994Z,19.80
2017-09-25T13:56:28.435Z,19.70
2017-09-25T14:04:05.152Z,19.60
2017-09-25T14:06:33.590Z,19.60
2017-09-25T14:09:02.664Z,19.40
2017-09-25T14:11:30.955Z,19.40
2017-09-25T14:14:00.871Z,19.30
2017-09-25T14:16:29.470Z,19.20
2017-09-25T14:18:57.797Z,19.20
2017-09-25T14:21:26.092Z,19.10
2017-09-25T14:23:54.563Z,19.10
2017-09-25T14:26:22.872Z,19.00
2017-09-25T14:28:51.965Z,18.80
2017-09-25T14:31:20.271Z,18.80
2017-09-25T14:33:48.819Z,18.70
2017-09-25T14:36:17.267Z,18.60
2017-09-25T14:38:45.579Z,18.40
2017-09-25T14:41:13.895Z,18.30
2017-09-25T14:43:42.206Z,18.20
2017-09-25T14:46:10.586Z,18.00
2017-09-25T14:48:38.994Z,17.90
2017-09-25T14:51:07.306Z,17.80
2017-09-25T14:53:35.616Z,17.80
2017-09-25T14:56:04.423Z,17.80
2017-09-25T14:58:32.741Z,17.70
2017-09-25T15:01:01.054Z,17.60
2017-09-25T15:03:29.378Z,17.50
2017-09-25T15:05:57.690Z,17.60
2017-09-25T15:08:26.028Z,17.60
2017-09-25T15:10:54.333Z,17.60
2017-09-25T15:13:22.786Z,17.60
2017-09-25T15:15:51.090Z,17.60
2017-09-25T15:18:19.414Z,17.70
2017-09-25T15:20:48.534Z,17.70
2017-09-25T15:23:16.826Z,17.60
2017-09-25T15:25:45.191Z,17.60
2017-09-25T15:28:13.514Z,17.60
2017-09-25T15:30:42.622Z,17.50
2017-09-25T15:33:11.715Z,17.50
2017-09-25T15:35:40.319Z,17.40
2017-09-25T15:38:09.375Z,17.30
2017-09-25T15:40:37.694Z,17.30
2017-09-25T15:43:06.027Z,17.30
2017-09-25T15:45:34.337Z,17.30
2017-09-25T15:48:03.432Z,17.30
2017-09-25T15:50:32.499Z,17.20
2017-09-25T15:53:01.628Z,17.10
2017-09-25T15:55:30.690Z,17.10
2017-09-25T15:57:59.030Z,17.00
2017-09-25T16:00:27.342Z,17.00
2017-09-25T16:02:55.847Z,16.90
2017-09-25T16:05:24.927Z,16.80
2017-09-25T16:07:53.231Z,16.80
2017-09-25T16:10:22.323Z,16.70
2017-09-25T16:12:50.651Z,16.70
2017-09-25T16:15:18.975Z,16.70
2017-09-25T16:17:47.245Z,16.60
2017-09-25T16:20:15.623Z,16.60
2017-09-25T16:22:43.959Z,16.60
2017-09-25T16:25:12.298Z,16.50
2017-09-25T16:27:40.613Z,16.50
2017-09-25T16:30:08.941Z,16.50
2017-09-25T16:32:37.247Z,16.40
2017-09-25T16:35:05.691Z,16.40
2017-09-25T16:37:34.759Z,16.40
2017-09-25T16:40:03.084Z,16.30
2017-09-25T16:42:31.435Z,16.40
2017-09-25T16:45:00.517Z,16.30
2017-09-25T16:47:28.854Z,16.30
2017-09-25T16:49:57.147Z,16.30
2017-09-25T16:52:25.490Z,16.30
2017-09-25T16:54:53.795Z,16.30
2017-09-25T16:57:22.532Z,16.20
2017-09-25T16:59:50.850Z,16.20
2017-09-25T17:02:19.161Z,16.10
2017-09-25T17:04:48.231Z,16.00
2017-09-25T17:07:16.537Z,16.00
2017-09-25T17:09:45.630Z,16.00
2017-09-25T17:12:13.939Z,15.90
2017-09-25T17:14:42.275Z,15.90
2017-09-25T17:17:10.578Z,15.90
2017-09-25T17:19:39.658Z,15.80
2017-09-25T17:22:08.736Z,15.70
2017-09-25T17:24:37.171Z,15.70
2017-09-25T17:27:05.595Z,15.70
2017-09-25T17:29:33.906Z,15.70
2017-09-25T17:32:02.259Z,15.70
2017-09-25T17:34:31.383Z,15.80
2017-09-25T17:36:59.727Z,15.70
2017-09-25T17:39:28.816Z,15.90
2017-09-25T17:41:57.239Z,15.80
2017-09-25T17:44:26.302Z,15.90
2017-09-25T17:46:55.380Z,16.00
2017-09-25T17:49:23.717Z,15.90
2017-09-25T17:51:52.039Z,16.00
2017-09-25T17:54:20.370Z,16.00
2017-09-25T17:56:48.675Z,15.90
2017-09-25T17:59:17.035Z,15.70
2017-09-25T18:01:45.343Z,15.60
2017-09-25T18:04:13.791Z,15.50
2017-09-25T18:06:42.113Z,15.40
2017-09-25T18:09:10.391Z,15.40
2017-09-25T18:11:39.496Z,15.30
2017-09-25T18:14:08.492Z,15.30
2017-09-25T18:16:36.812Z,15.30
2017-09-25T18:19:05.127Z,15.30
2017-09-25T18:21:34.246Z,15.30
2017-09-25T18:24:03.314Z,15.30
2017-09-25T18:26:31.668Z,15.20
2017-09-25T18:28:59.968Z,15.30
2017-09-25T18:31:29.099Z,15.20
2017-09-25T18:33:57.369Z,15.20
2017-09-25T18:36:25.710Z,15.20
2017-09-25T18:38:54.031Z,15.30
2017-09-25T18:41:22.363Z,15.30
2017-09-25T18:43:50.693Z,15.30
2017-09-25T18:46:19.011Z,15.20
2017-09-25T18:48:47.353Z,15.20
2017-09-25T18:51:15.673Z,15.20
2017-09-25T18:53:44.903Z,15.10
2017-09-25T18:56:13.222Z,15.00
2017-09-25T18:58:41.558Z,15.00
2017-09-25T19:01:09.899Z,15.00
2017-09-25T19:03:38.194Z,14.90
2017-09-25T19:06:06.536Z,14.90
2017-09-25T19:08:34.866Z,14.90
2017-09-25T19:11:03.234Z,14.90
2017-09-25T19:13:32.302Z,14.90
2017-09-25T19:16:00.681Z,14.80
2017-09-25T19:18:29.779Z,14.80
2017-09-25T19:20:59.298Z,14.80
2017-09-25T19:23:27.663Z,14.80
2017-09-25T19:25:55.959Z,14.80
2017-09-25T19:28:24.329Z,14.80
2017-09-25T19:30:52.687Z,14.80
2017-09-25T19:33:21.027Z,14.80
2017-09-25T19:35:49.374Z,14.80
2017-09-25T19:38:17.717Z,14.80
2017-09-25T19:40:46.029Z,14.90
2017-09-25T19:43:15.167Z,14.90
2017-09-25T19:45:43.473Z,14.80
2017-09-25T19:48:13.445Z,14.90
2017-09-25T19:50:52.640Z,14.90
2017-09-25T19:53:21.006Z,14.80
2017-09-25T19:55:53.528Z,14.80
2017-09-25T19:58:26.480Z,14.70
2017-09-25T20:00:54.824Z,14.70
2017-09-25T20:03:23.142Z,14.70
2017-09-25T20:05:51.460Z,14.70
2017-09-25T20:08:19.812Z,14.60
2017-09-25T20:10:48.115Z,14.60
2017-09-25T20:13:16.536Z,14.60
2017-09-25T20:15:50.044Z,14.50
2017-09-25T20:18:21.055Z,14.50
2017-09-25T20:20:49.536Z,14.50
2017-09-25T20:23:18.666Z,14.50
2017-09-25T20:25:47.024Z,14.40
2017-09-25T20:28:15.360Z,14.50
2017-09-25T20:30:43.706Z,14.50
2017-09-25T20:33:12.047Z,14.40
2017-09-25T20:35:40.392Z,14.50
2017-09-25T20:38:08.724Z,14.40
2017-09-25T20:40:52.074Z,14.40
2017-09-25T20:43:21.808Z,14.40
2017-09-25T20:45:50.159Z,14.40
2017-09-25T20:48:18.659Z,14.30
2017-09-25T20:50:46.983Z,14.30
2017-09-25T20:53:15.359Z,14.30
2017-09-25T20:55:43.682Z,14.30
2017-09-25T20:58:12.020Z,14.30
2017-09-25T21:00:40.319Z,14.30
2017-09-25T21:03:09.391Z,14.30
2017-09-25T21:05:37.752Z,14.30
2017-09-25T21:08:06.062Z,14.30
2017-09-25T21:10:34.430Z,14.30
2017-09-25T21:13:02.736Z,14.30
2017-09-25T21:15:31.034Z,14.30
2017-09-25T21:17:59.490Z,14.30
2017-09-25T21:20:27.783Z,14.30
2017-09-25T21:22:56.110Z,14.30
2017-09-25T21:25:24.452Z,14.30
2017-09-25T21:27:52.971Z,14.20
2017-09-25T21:30:21.354Z,14.20
2017-09-25T21:32:49.667Z,14.20
2017-09-25T21:35:18.013Z,14.20
2017-09-25T21:37:46.322Z,14.20
2017-09-25T21:40:14.673Z,14.20
2017-09-25T21:42:42.986Z,14.20
2017-09-25T21:45:11.329Z,14.20
2017-09-25T21:47:39.663Z,14.20
2017-09-25T21:50:08.166Z,14.20
2017-09-25T21:52:36.490Z,14.20
2017-09-25T21:55:04.819Z,14.30
2017-09-25T21:57:33.162Z,14.30
2017-09-25T22:00:01.474Z,14.30
2017-09-25T22:02:29.850Z,14.30
2017-09-25T22:04:58.135Z,14.30
2017-09-25T22:07:27.237Z,14.30
2017-09-25T22:09:55.533Z,14.30
2017-09-25T22:12:23.867Z,14.30
2017-09-25T22:14:52.938Z,14.30
2017-09-25T22:17:21.378Z,14.30
2017-09-25T22:19:49.730Z,14.40
2017-09-25T22:22:18.098Z,14.40
2017-09-25T22:24:47.199Z,14.40
2017-09-25T22:27:15.519Z,14.30
2017-09-25T22:29:43.854Z,14.40
2017-09-25T22:32:12.922Z,14.30
2017-09-25T22:34:41.238Z,14.30
2017-09-25T22:37:10.298Z,14.30
2017-09-25T22:39:38.701Z,14.30
2017-09-25T22:42:06.988Z,14.40
2017-09-25T22:44:35.788Z,14.30
2017-09-25T22:47:04.085Z,14.40
2017-09-25T22:49:32.628Z,14.30
2017-09-25T22:52:00.950Z,14.30
2017-09-25T22:54:29.233Z,14.40
2017-09-25T22:56:57.559Z,14.40
2017-09-25T22:59:26.626Z,14.40
2017-09-25T23:01:54.951Z,14.40
2017-09-25T23:04:23.281Z,14.40
2017-09-25T23:06:51.596Z,14.40
2017-09-25T23:09:25.618Z,14.50
2017-09-25T23:11:54.539Z,14.50
2017-09-25T23:14:22.836Z,14.50
2017-09-25T23:16:51.146Z,14.50
2017-09-25T23:19:19.441Z,14.50
2017-09-25T23:21:47.760Z,14.50
2017-09-25T23:24:16.096Z,14.50
2017-09-25T23:26:44.412Z,14.50
2017-09-25T23:29:13.537Z,14.60
2017-09-25T23:31:43.527Z,14.60
2017-09-25T23:34:12.622Z,14.60
2017-09-25T23:36:40.921Z,14.60
2017-09-25T23:39:09.238Z,14.60
2017-09-25T23:41:37.564Z,14.60
2017-09-25T23:44:05.995Z,14.60
2017-09-25T23:46:34.302Z,14.60
2017-09-25T23:49:02.603Z,14.50
2017-09-25T23:51:30.998Z,14.50
2017-09-25T23:53:59.307Z,14.50
2017-09-25T23:56:27.652Z,14.50
2017-09-25T23:58:55.965Z,14.50
